sensor_id;sensor_type;location;lat;lon;timestamp;P1;durP1;ratioP1;P2;durP2;ratioP2
72060;SDS011;59925;52.136;5.420;2022-07-09T00:00:30;7.53;;;3.20;;
72060;SDS011;59925;52.136;5.420;2022-07-09T00:02:56;5.07;;;2.72;;
72060;SDS011;59925;52.136;5.420;2022-07-09T00:05:23;6.72;;;2.95;;
72060;SDS011;59925;52.136;5.420;2022-07-09T00:07:50;8.10;;;2.80;;
72060;SDS011;59925;52.136;5.420;2022-07-09T00:10:17;4.22;;;2.72;;
72060;SDS011;59925;52.136;5.420;2022-07-09T00:12:44;6.88;;;2.67;;
72060;SDS011;59925;52.136;5.420;2022-07-09T00:15:10;10.23;;;3.65;;
72060;SDS011;59925;52.136;5.420;2022-07-09T00:17:36;9.00;;;3.97;;
72060;SDS011;59925;52.136;5.420;2022-07-09T00:20:04;7.80;;;3.50;;
72060;SDS011;59925;52.136;5.420;2022-07-09T00:22:31;8.40;;;3.28;;
72060;SDS011;59925;52.136;5.420;2022-07-09T00:24:58;7.15;;;3.22;;
72060;SDS011;59925;52.136;5.420;2022-07-09T00:27:25;6.38;;;2.90;;
72060;SDS011;59925;52.136;5.420;2022-07-09T00:29:51;6.75;;;2.97;;
72060;SDS011;59925;52.136;5.420;2022-07-09T00:32:18;6.50;;;3.07;;
72060;SDS011;59925;52.136;5.420;2022-07-09T00:34:44;6.10;;;3.10;;
72060;SDS011;59925;52.136;5.420;2022-07-09T00:37:11;8.18;;;3.63;;
72060;SDS011;59925;52.136;5.420;2022-07-09T00:39:38;6.95;;;3.00;;
72060;SDS011;59925;52.136;5.420;2022-07-09T00:42:05;5.57;;;3.53;;
72060;SDS011;59925;52.136;5.420;2022-07-09T00:44:35;5.20;;;3.50;;
72060;SDS011;59925;52.136;5.420;2022-07-09T00:47:03;5.43;;;2.83;;
72060;SDS011;59925;52.136;5.420;2022-07-09T00:49:31;6.15;;;3.17;;
72060;SDS011;59925;52.136;5.420;2022-07-09T00:51:57;5.43;;;3.47;;
72060;SDS011;59925;52.136;5.420;2022-07-09T00:54:25;4.97;;;2.95;;
72060;SDS011;59925;52.136;5.420;2022-07-09T00:56:52;5.83;;;2.97;;
72060;SDS011;59925;52.136;5.420;2022-07-09T00:59:20;4.32;;;3.03;;
72060;SDS011;59925;52.136;5.420;2022-07-09T01:01:51;4.22;;;2.83;;
72060;SDS011;59925;52.136;5.420;2022-07-09T01:04:18;4.90;;;2.92;;
72060;SDS011;59925;52.136;5.420;2022-07-09T01:06:44;3.92;;;2.83;;
72060;SDS011;59925;52.136;5.420;2022-07-09T01:09:11;9.40;;;3.33;;
72060;SDS011;59925;52.136;5.420;2022-07-09T01:11:37;7.10;;;3.20;;
72060;SDS011;59925;52.136;5.420;2022-07-09T01:14:04;5.05;;;3.30;;
72060;SDS011;59925;52.136;5.420;2022-07-09T01:16:31;7.43;;;3.38;;
72060;SDS011;59925;52.136;5.420;2022-07-09T01:19:00;6.00;;;3.00;;
72060;SDS011;59925;52.136;5.420;2022-07-09T01:21:27;4.87;;;2.87;;
72060;SDS011;59925;52.136;5.420;2022-07-09T01:23:54;7.10;;;3.80;;
72060;SDS011;59925;52.136;5.420;2022-07-09T01:26:20;7.32;;;3.05;;
72060;SDS011;59925;52.136;5.420;2022-07-09T01:28:47;5.65;;;3.30;;
72060;SDS011;59925;52.136;5.420;2022-07-09T01:31:14;6.22;;;3.70;;
72060;SDS011;59925;52.136;5.420;2022-07-09T01:33:41;7.27;;;4.60;;
72060;SDS011;59925;52.136;5.420;2022-07-09T01:36:08;8.52;;;4.50;;
72060;SDS011;59925;52.136;5.420;2022-07-09T01:38:34;8.77;;;4.72;;
72060;SDS011;59925;52.136;5.420;2022-07-09T01:41:01;8.45;;;4.70;;
72060;SDS011;59925;52.136;5.420;2022-07-09T01:43:28;10.30;;;5.05;;
72060;SDS011;59925;52.136;5.420;2022-07-09T01:45:55;10.77;;;6.07;;
72060;SDS011;59925;52.136;5.420;2022-07-09T01:48:21;11.10;;;6.55;;
72060;SDS011;59925;52.136;5.420;2022-07-09T01:50:47;11.25;;;6.03;;
72060;SDS011;59925;52.136;5.420;2022-07-09T01:53:14;12.70;;;5.72;;
72060;SDS011;59925;52.136;5.420;2022-07-09T01:55:41;10.98;;;6.05;;
72060;SDS011;59925;52.136;5.420;2022-07-09T01:58:07;10.57;;;6.50;;
72060;SDS011;59925;52.136;5.420;2022-07-09T02:00:34;11.63;;;6.20;;
72060;SDS011;59925;52.136;5.420;2022-07-09T02:03:00;15.30;;;6.93;;
72060;SDS011;59925;52.136;5.420;2022-07-09T02:05:27;10.93;;;6.78;;
72060;SDS011;59925;52.136;5.420;2022-07-09T02:07:53;10.40;;;6.75;;
72060;SDS011;59925;52.136;5.420;2022-07-09T02:10:20;14.07;;;7.30;;
72060;SDS011;59925;52.136;5.420;2022-07-09T02:12:46;15.65;;;7.20;;
72060;SDS011;59925;52.136;5.420;2022-07-09T02:15:12;13.93;;;7.50;;
72060;SDS011;59925;52.136;5.420;2022-07-09T02:17:39;13.40;;;8.02;;
72060;SDS011;59925;52.136;5.420;2022-07-09T02:20:06;14.05;;;7.95;;
72060;SDS011;59925;52.136;5.420;2022-07-09T02:22:34;12.27;;;7.20;;
72060;SDS011;59925;52.136;5.420;2022-07-09T02:25:01;13.48;;;7.28;;
72060;SDS011;59925;52.136;5.420;2022-07-09T02:27:27;13.40;;;7.53;;
72060;SDS011;59925;52.136;5.420;2022-07-09T02:29:54;12.88;;;8.10;;
72060;SDS011;59925;52.136;5.420;2022-07-09T02:32:20;11.98;;;7.57;;
72060;SDS011;59925;52.136;5.420;2022-07-09T02:34:47;15.93;;;7.70;;
72060;SDS011;59925;52.136;5.420;2022-07-09T02:37:14;13.85;;;8.43;;
72060;SDS011;59925;52.136;5.420;2022-07-09T02:39:41;16.65;;;8.77;;
72060;SDS011;59925;52.136;5.420;2022-07-09T02:42:07;14.55;;;8.98;;
72060;SDS011;59925;52.136;5.420;2022-07-09T02:44:33;15.55;;;9.02;;
72060;SDS011;59925;52.136;5.420;2022-07-09T02:47:00;13.40;;;8.60;;
72060;SDS011;59925;52.136;5.420;2022-07-09T02:49:26;14.07;;;8.90;;
72060;SDS011;59925;52.136;5.420;2022-07-09T02:51:53;19.80;;;10.07;;
72060;SDS011;59925;52.136;5.420;2022-07-09T02:54:20;21.77;;;10.35;;
72060;SDS011;59925;52.136;5.420;2022-07-09T02:56:47;18.30;;;10.43;;
72060;SDS011;59925;52.136;5.420;2022-07-09T02:59:13;19.10;;;11.33;;
72060;SDS011;59925;52.136;5.420;2022-07-09T03:01:40;21.50;;;12.05;;
72060;SDS011;59925;52.136;5.420;2022-07-09T03:04:07;22.80;;;12.07;;
72060;SDS011;59925;52.136;5.420;2022-07-09T03:06:33;23.88;;;13.02;;
72060;SDS011;59925;52.136;5.420;2022-07-09T03:08:59;21.95;;;11.88;;
72060;SDS011;59925;52.136;5.420;2022-07-09T03:11:26;22.17;;;12.40;;
72060;SDS011;59925;52.136;5.420;2022-07-09T03:13:52;24.48;;;12.70;;
72060;SDS011;59925;52.136;5.420;2022-07-09T03:16:19;22.13;;;12.15;;
72060;SDS011;59925;52.136;5.420;2022-07-09T03:18:45;22.80;;;12.35;;
72060;SDS011;59925;52.136;5.420;2022-07-09T03:21:12;22.23;;;12.60;;
72060;SDS011;59925;52.136;5.420;2022-07-09T03:23:38;20.57;;;11.37;;
72060;SDS011;59925;52.136;5.420;2022-07-09T03:26:08;24.00;;;12.15;;
72060;SDS011;59925;52.136;5.420;2022-07-09T03:28:34;21.63;;;12.07;;
72060;SDS011;59925;52.136;5.420;2022-07-09T03:31:01;19.08;;;11.82;;
72060;SDS011;59925;52.136;5.420;2022-07-09T03:33:28;19.27;;;11.57;;
72060;SDS011;59925;52.136;5.420;2022-07-09T03:35:54;22.53;;;11.53;;
72060;SDS011;59925;52.136;5.420;2022-07-09T03:38:22;22.58;;;11.85;;
72060;SDS011;59925;52.136;5.420;2022-07-09T03:40:48;21.50;;;11.32;;
72060;SDS011;59925;52.136;5.420;2022-07-09T03:43:15;20.70;;;12.02;;
72060;SDS011;59925;52.136;5.420;2022-07-09T03:45:41;19.77;;;12.25;;
72060;SDS011;59925;52.136;5.420;2022-07-09T03:48:08;21.93;;;12.17;;
72060;SDS011;59925;52.136;5.420;2022-07-09T03:50:34;18.75;;;11.45;;
72060;SDS011;59925;52.136;5.420;2022-07-09T03:53:01;19.05;;;11.45;;
72060;SDS011;59925;52.136;5.420;2022-07-09T03:55:27;19.98;;;11.00;;
72060;SDS011;59925;52.136;5.420;2022-07-09T03:57:55;23.50;;;12.07;;
72060;SDS011;59925;52.136;5.420;2022-07-09T04:00:22;19.30;;;11.17;;
72060;SDS011;59925;52.136;5.420;2022-07-09T04:02:48;22.33;;;11.82;;
72060;SDS011;59925;52.136;5.420;2022-07-09T04:05:15;21.20;;;10.93;;
72060;SDS011;59925;52.136;5.420;2022-07-09T04:07:41;17.67;;;10.75;;
72060;SDS011;59925;52.136;5.420;2022-07-09T04:10:08;20.63;;;11.38;;
72060;SDS011;59925;52.136;5.420;2022-07-09T04:12:34;25.27;;;12.40;;
72060;SDS011;59925;52.136;5.420;2022-07-09T04:15:01;16.80;;;10.43;;
72060;SDS011;59925;52.136;5.420;2022-07-09T04:17:28;22.08;;;10.95;;
72060;SDS011;59925;52.136;5.420;2022-07-09T04:19:54;23.25;;;12.52;;
72060;SDS011;59925;52.136;5.420;2022-07-09T04:22:20;22.13;;;12.02;;
72060;SDS011;59925;52.136;5.420;2022-07-09T04:24:47;21.87;;;11.27;;
72060;SDS011;59925;52.136;5.420;2022-07-09T04:27:13;24.20;;;12.35;;
72060;SDS011;59925;52.136;5.420;2022-07-09T04:29:40;20.15;;;11.93;;
72060;SDS011;59925;52.136;5.420;2022-07-09T04:32:06;22.05;;;12.95;;
72060;SDS011;59925;52.136;5.420;2022-07-09T04:34:33;21.50;;;11.63;;
72060;SDS011;59925;52.136;5.420;2022-07-09T04:36:59;25.73;;;13.67;;
72060;SDS011;59925;52.136;5.420;2022-07-09T04:39:26;23.48;;;12.50;;
72060;SDS011;59925;52.136;5.420;2022-07-09T04:41:53;23.60;;;13.07;;
72060;SDS011;59925;52.136;5.420;2022-07-09T04:44:19;22.75;;;11.82;;
72060;SDS011;59925;52.136;5.420;2022-07-09T04:46:46;26.00;;;13.32;;
72060;SDS011;59925;52.136;5.420;2022-07-09T04:49:12;24.43;;;13.87;;
72060;SDS011;59925;52.136;5.420;2022-07-09T04:51:39;28.38;;;13.85;;
72060;SDS011;59925;52.136;5.420;2022-07-09T04:54:05;27.02;;;14.15;;
72060;SDS011;59925;52.136;5.420;2022-07-09T04:56:31;23.52;;;13.75;;
72060;SDS011;59925;52.136;5.420;2022-07-09T04:58:58;24.52;;;13.52;;
72060;SDS011;59925;52.136;5.420;2022-07-09T05:01:26;24.03;;;13.67;;
72060;SDS011;59925;52.136;5.420;2022-07-09T05:03:53;25.67;;;14.15;;
72060;SDS011;59925;52.136;5.420;2022-07-09T05:06:19;25.02;;;14.50;;
72060;SDS011;59925;52.136;5.420;2022-07-09T05:08:46;27.17;;;14.52;;
72060;SDS011;59925;52.136;5.420;2022-07-09T05:11:13;28.20;;;16.20;;
72060;SDS011;59925;52.136;5.420;2022-07-09T05:13:43;26.43;;;13.83;;
72060;SDS011;59925;52.136;5.420;2022-07-09T05:16:12;29.48;;;14.40;;
72060;SDS011;59925;52.136;5.420;2022-07-09T05:18:38;29.80;;;14.30;;
72060;SDS011;59925;52.136;5.420;2022-07-09T05:21:05;25.67;;;14.82;;
72060;SDS011;59925;52.136;5.420;2022-07-09T05:23:33;26.75;;;14.00;;
72060;SDS011;59925;52.136;5.420;2022-07-09T05:25:59;27.93;;;14.63;;
72060;SDS011;59925;52.136;5.420;2022-07-09T05:28:26;27.50;;;14.57;;
72060;SDS011;59925;52.136;5.420;2022-07-09T05:30:53;24.83;;;13.65;;
72060;SDS011;59925;52.136;5.420;2022-07-09T05:33:39;23.20;;;13.98;;
72060;SDS011;59925;52.136;5.420;2022-07-09T05:36:06;24.15;;;14.00;;
72060;SDS011;59925;52.136;5.420;2022-07-09T05:38:32;24.73;;;13.47;;
72060;SDS011;59925;52.136;5.420;2022-07-09T05:40:59;23.48;;;13.60;;
72060;SDS011;59925;52.136;5.420;2022-07-09T05:43:25;22.35;;;13.43;;
72060;SDS011;59925;52.136;5.420;2022-07-09T05:45:52;21.45;;;12.38;;
72060;SDS011;59925;52.136;5.420;2022-07-09T05:48:18;23.92;;;13.65;;
72060;SDS011;59925;52.136;5.420;2022-07-09T05:50:45;21.50;;;13.53;;
72060;SDS011;59925;52.136;5.420;2022-07-09T05:53:11;19.80;;;12.73;;
72060;SDS011;59925;52.136;5.420;2022-07-09T05:55:38;21.42;;;12.02;;
72060;SDS011;59925;52.136;5.420;2022-07-09T05:58:04;21.08;;;12.32;;
72060;SDS011;59925;52.136;5.420;2022-07-09T06:00:31;21.70;;;13.30;;
72060;SDS011;59925;52.136;5.420;2022-07-09T06:02:57;20.60;;;11.77;;
72060;SDS011;59925;52.136;5.420;2022-07-09T06:05:23;19.13;;;11.80;;
72060;SDS011;59925;52.136;5.420;2022-07-09T06:07:50;20.30;;;11.95;;
72060;SDS011;59925;52.136;5.420;2022-07-09T06:10:16;18.55;;;11.95;;
72060;SDS011;59925;52.136;5.420;2022-07-09T06:12:43;19.95;;;11.30;;
72060;SDS011;59925;52.136;5.420;2022-07-09T06:15:10;16.37;;;10.67;;
72060;SDS011;59925;52.136;5.420;2022-07-09T06:17:37;16.90;;;10.15;;
72060;SDS011;59925;52.136;5.420;2022-07-09T06:20:04;19.25;;;10.98;;
72060;SDS011;59925;52.136;5.420;2022-07-09T06:22:31;14.68;;;9.85;;
72060;SDS011;59925;52.136;5.420;2022-07-09T06:24:58;16.27;;;10.30;;
72060;SDS011;59925;52.136;5.420;2022-07-09T06:27:24;14.77;;;10.10;;
72060;SDS011;59925;52.136;5.420;2022-07-09T06:29:51;14.02;;;8.93;;
72060;SDS011;59925;52.136;5.420;2022-07-09T06:32:17;14.48;;;9.98;;
72060;SDS011;59925;52.136;5.420;2022-07-09T06:34:44;14.50;;;9.25;;
72060;SDS011;59925;52.136;5.420;2022-07-09T06:37:10;13.40;;;8.80;;
72060;SDS011;59925;52.136;5.420;2022-07-09T06:39:37;12.63;;;8.57;;
72060;SDS011;59925;52.136;5.420;2022-07-09T06:42:14;12.50;;;8.15;;
72060;SDS011;59925;52.136;5.420;2022-07-09T06:44:42;10.50;;;7.35;;
72060;SDS011;59925;52.136;5.420;2022-07-09T06:47:10;11.35;;;6.70;;
72060;SDS011;59925;52.136;5.420;2022-07-09T06:49:37;8.52;;;5.72;;
72060;SDS011;59925;52.136;5.420;2022-07-09T06:52:04;11.77;;;6.20;;
72060;SDS011;59925;52.136;5.420;2022-07-09T06:54:30;8.82;;;5.15;;
72060;SDS011;59925;52.136;5.420;2022-07-09T06:56:57;8.38;;;5.63;;
72060;SDS011;59925;52.136;5.420;2022-07-09T06:59:29;8.90;;;5.72;;
72060;SDS011;59925;52.136;5.420;2022-07-09T07:01:56;6.85;;;4.60;;
72060;SDS011;59925;52.136;5.420;2022-07-09T07:04:22;5.43;;;4.07;;
72060;SDS011;59925;52.136;5.420;2022-07-09T07:06:51;4.80;;;3.60;;
72060;SDS011;59925;52.136;5.420;2022-07-09T07:09:17;6.82;;;4.10;;
72060;SDS011;59925;52.136;5.420;2022-07-09T07:11:44;4.97;;;3.78;;
72060;SDS011;59925;52.136;5.420;2022-07-09T07:14:12;4.68;;;3.78;;
72060;SDS011;59925;52.136;5.420;2022-07-09T07:16:38;6.60;;;4.33;;
72060;SDS011;59925;52.136;5.420;2022-07-09T07:19:05;6.97;;;4.03;;
72060;SDS011;59925;52.136;5.420;2022-07-09T07:21:32;9.88;;;5.68;;
72060;SDS011;59925;52.136;5.420;2022-07-09T07:23:59;6.43;;;5.15;;
72060;SDS011;59925;52.136;5.420;2022-07-09T07:26:25;6.93;;;4.65;;
72060;SDS011;59925;52.136;5.420;2022-07-09T07:28:52;20.73;;;6.17;;
72060;SDS011;59925;52.136;5.420;2022-07-09T07:31:18;8.70;;;5.30;;
72060;SDS011;59925;52.136;5.420;2022-07-09T07:33:45;8.90;;;5.50;;
72060;SDS011;59925;52.136;5.420;2022-07-09T07:36:11;13.50;;;7.75;;
72060;SDS011;59925;52.136;5.420;2022-07-09T07:38:38;9.43;;;5.90;;
72060;SDS011;59925;52.136;5.420;2022-07-09T07:41:04;10.70;;;5.33;;
72060;SDS011;59925;52.136;5.420;2022-07-09T07:43:30;9.77;;;5.63;;
72060;SDS011;59925;52.136;5.420;2022-07-09T07:45:57;6.68;;;5.07;;
72060;SDS011;59925;52.136;5.420;2022-07-09T07:48:31;7.75;;;4.60;;
72060;SDS011;59925;52.136;5.420;2022-07-09T07:50:58;6.57;;;4.80;;
72060;SDS011;59925;52.136;5.420;2022-07-09T07:53:25;6.67;;;4.73;;
72060;SDS011;59925;52.136;5.420;2022-07-09T07:55:51;7.80;;;5.05;;
72060;SDS011;59925;52.136;5.420;2022-07-09T07:58:17;9.13;;;5.70;;
72060;SDS011;59925;52.136;5.420;2022-07-09T08:00:44;8.40;;;5.00;;
72060;SDS011;59925;52.136;5.420;2022-07-09T08:03:10;6.68;;;4.53;;
72060;SDS011;59925;52.136;5.420;2022-07-09T08:05:37;5.43;;;4.90;;
72060;SDS011;59925;52.136;5.420;2022-07-09T08:08:03;6.18;;;4.05;;
72060;SDS011;59925;52.136;5.420;2022-07-09T08:10:30;5.95;;;3.83;;
72060;SDS011;59925;52.136;5.420;2022-07-09T08:13:01;4.75;;;3.92;;
72060;SDS011;59925;52.136;5.420;2022-07-09T08:15:28;5.63;;;3.83;;
72060;SDS011;59925;52.136;5.420;2022-07-09T08:17:54;5.60;;;3.70;;
72060;SDS011;59925;52.136;5.420;2022-07-09T08:20:22;6.70;;;3.70;;
72060;SDS011;59925;52.136;5.420;2022-07-09T08:22:48;8.63;;;3.90;;
72060;SDS011;59925;52.136;5.420;2022-07-09T08:25:15;6.80;;;4.22;;
72060;SDS011;59925;52.136;5.420;2022-07-09T08:27:41;7.00;;;4.10;;
72060;SDS011;59925;52.136;5.420;2022-07-09T08:30:08;4.70;;;3.50;;
72060;SDS011;59925;52.136;5.420;2022-07-09T08:32:35;3.80;;;2.67;;
72060;SDS011;59925;52.136;5.420;2022-07-09T08:35:02;5.05;;;2.60;;
72060;SDS011;59925;52.136;5.420;2022-07-09T08:37:29;3.85;;;2.22;;
72060;SDS011;59925;52.136;5.420;2022-07-09T08:39:55;4.18;;;2.00;;
72060;SDS011;59925;52.136;5.420;2022-07-09T08:42:21;3.10;;;2.00;;
72060;SDS011;59925;52.136;5.420;2022-07-09T08:44:48;5.78;;;1.80;;
72060;SDS011;59925;52.136;5.420;2022-07-09T08:47:15;3.63;;;1.55;;
72060;SDS011;59925;52.136;5.420;2022-07-09T08:49:42;2.10;;;1.40;;
72060;SDS011;59925;52.136;5.420;2022-07-09T08:52:10;4.55;;;1.33;;
72060;SDS011;59925;52.136;5.420;2022-07-09T08:54:38;2.10;;;1.10;;
72060;SDS011;59925;52.136;5.420;2022-07-09T08:57:08;2.40;;;1.10;;
72060;SDS011;59925;52.136;5.420;2022-07-09T08:59:34;2.20;;;1.23;;
72060;SDS011;59925;52.136;5.420;2022-07-09T09:02:04;2.33;;;1.30;;
72060;SDS011;59925;52.136;5.420;2022-07-09T09:04:32;2.03;;;1.33;;
72060;SDS011;59925;52.136;5.420;2022-07-09T09:07:11;2.10;;;1.37;;
72060;SDS011;59925;52.136;5.420;2022-07-09T09:09:41;2.10;;;1.30;;
72060;SDS011;59925;52.136;5.420;2022-07-09T09:12:08;3.42;;;1.00;;
72060;SDS011;59925;52.136;5.420;2022-07-09T09:14:35;1.73;;;1.15;;
72060;SDS011;59925;52.136;5.420;2022-07-09T09:17:04;3.63;;;1.27;;
72060;SDS011;59925;52.136;5.420;2022-07-09T09:19:32;1.67;;;1.17;;
72060;SDS011;59925;52.136;5.420;2022-07-09T09:22:00;2.03;;;1.25;;
72060;SDS011;59925;52.136;5.420;2022-07-09T09:24:26;1.90;;;1.17;;
72060;SDS011;59925;52.136;5.420;2022-07-09T09:26:58;1.95;;;1.10;;
72060;SDS011;59925;52.136;5.420;2022-07-09T09:29:26;1.33;;;1.20;;
72060;SDS011;59925;52.136;5.420;2022-07-09T09:31:53;3.00;;;1.10;;
72060;SDS011;59925;52.136;5.420;2022-07-09T09:34:21;2.42;;;1.23;;
72060;SDS011;59925;52.136;5.420;2022-07-09T09:36:52;4.22;;;2.22;;
72060;SDS011;59925;52.136;5.420;2022-07-09T09:39:24;2.22;;;1.20;;
72060;SDS011;59925;52.136;5.420;2022-07-09T09:41:53;2.35;;;1.17;;
72060;SDS011;59925;52.136;5.420;2022-07-09T09:44:22;2.03;;;1.20;;
72060;SDS011;59925;52.136;5.420;2022-07-09T09:46:50;1.27;;;0.90;;
72060;SDS011;59925;52.136;5.420;2022-07-09T09:49:17;3.60;;;1.13;;
72060;SDS011;59925;52.136;5.420;2022-07-09T09:54:16;2.75;;;1.00;;
72060;SDS011;59925;52.136;5.420;2022-07-09T09:56:43;3.23;;;0.97;;
72060;SDS011;59925;52.136;5.420;2022-07-09T09:59:10;2.35;;;1.02;;
72060;SDS011;59925;52.136;5.420;2022-07-09T10:01:38;1.05;;;0.60;;
72060;SDS011;59925;52.136;5.420;2022-07-09T10:04:06;4.30;;;0.77;;
72060;SDS011;59925;52.136;5.420;2022-07-09T10:06:33;4.38;;;0.80;;
72060;SDS011;59925;52.136;5.420;2022-07-09T10:09:01;1.67;;;0.70;;
72060;SDS011;59925;52.136;5.420;2022-07-09T10:14:29;1.17;;;0.70;;
72060;SDS011;59925;52.136;5.420;2022-07-09T10:17:08;1.45;;;0.77;;
72060;SDS011;59925;52.136;5.420;2022-07-09T10:19:50;2.35;;;0.80;;
72060;SDS011;59925;52.136;5.420;2022-07-09T10:22:21;1.20;;;0.70;;
72060;SDS011;59925;52.136;5.420;2022-07-09T10:24:50;1.98;;;0.60;;
72060;SDS011;59925;52.136;5.420;2022-07-09T10:27:18;3.88;;;0.80;;
72060;SDS011;59925;52.136;5.420;2022-07-09T10:29:52;3.60;;;0.70;;
72060;SDS011;59925;52.136;5.420;2022-07-09T10:32:29;1.98;;;0.70;;
72060;SDS011;59925;52.136;5.420;2022-07-09T10:34:57;1.07;;;0.60;;
72060;SDS011;59925;52.136;5.420;2022-07-09T10:37:40;1.88;;;0.60;;
72060;SDS011;59925;52.136;5.420;2022-07-09T10:40:15;2.30;;;0.70;;
72060;SDS011;59925;52.136;5.420;2022-07-09T10:42:43;2.10;;;0.65;;
72060;SDS011;59925;52.136;5.420;2022-07-09T10:47:43;3.67;;;0.60;;
72060;SDS011;59925;52.136;5.420;2022-07-09T10:50:13;4.05;;;0.65;;
72060;SDS011;59925;52.136;5.420;2022-07-09T10:52:39;1.10;;;0.60;;
72060;SDS011;59925;52.136;5.420;2022-07-09T10:55:06;3.15;;;0.50;;
72060;SDS011;59925;52.136;5.420;2022-07-09T10:57:34;1.85;;;0.65;;
72060;SDS011;59925;52.136;5.420;2022-07-09T11:00:01;2.27;;;0.70;;
72060;SDS011;59925;52.136;5.420;2022-07-09T11:02:28;2.60;;;0.80;;
72060;SDS011;59925;52.136;5.420;2022-07-09T11:04:54;2.17;;;0.70;;
72060;SDS011;59925;52.136;5.420;2022-07-09T11:07:22;1.95;;;0.70;;
72060;SDS011;59925;52.136;5.420;2022-07-09T11:09:50;2.13;;;0.73;;
72060;SDS011;59925;52.136;5.420;2022-07-09T11:12:17;1.10;;;0.67;;
72060;SDS011;59925;52.136;5.420;2022-07-09T11:14:47;1.55;;;0.70;;
72060;SDS011;59925;52.136;5.420;2022-07-09T11:17:18;2.78;;;0.90;;
72060;SDS011;59925;52.136;5.420;2022-07-09T11:19:47;2.20;;;0.80;;
72060;SDS011;59925;52.136;5.420;2022-07-09T11:22:15;4.72;;;1.63;;
72060;SDS011;59925;52.136;5.420;2022-07-09T11:24:41;3.17;;;0.90;;
72060;SDS011;59925;52.136;5.420;2022-07-09T11:27:08;1.67;;;0.80;;
72060;SDS011;59925;52.136;5.420;2022-07-09T11:29:35;2.53;;;0.90;;
72060;SDS011;59925;52.136;5.420;2022-07-09T11:32:02;1.52;;;0.70;;
72060;SDS011;59925;52.136;5.420;2022-07-09T11:34:29;1.85;;;0.75;;
72060;SDS011;59925;52.136;5.420;2022-07-09T11:36:57;2.67;;;0.73;;
72060;SDS011;59925;52.136;5.420;2022-07-09T11:39:29;3.25;;;1.15;;
72060;SDS011;59925;52.136;5.420;2022-07-09T11:42:00;3.05;;;0.80;;
72060;SDS011;59925;52.136;5.420;2022-07-09T11:44:28;1.25;;;0.60;;
72060;SDS011;59925;52.136;5.420;2022-07-09T11:49:36;1.60;;;0.70;;
72060;SDS011;59925;52.136;5.420;2022-07-09T11:57:30;2.95;;;0.65;;
72060;SDS011;59925;52.136;5.420;2022-07-09T11:59:58;3.10;;;0.82;;
72060;SDS011;59925;52.136;5.420;2022-07-09T12:02:32;2.87;;;0.90;;
72060;SDS011;59925;52.136;5.420;2022-07-09T12:05:01;2.75;;;0.88;;
72060;SDS011;59925;52.136;5.420;2022-07-09T12:07:29;2.10;;;0.80;;
72060;SDS011;59925;52.136;5.420;2022-07-09T12:10:00;1.75;;;0.60;;
72060;SDS011;59925;52.136;5.420;2022-07-09T12:12:31;2.85;;;0.80;;
72060;SDS011;59925;52.136;5.420;2022-07-09T12:14:59;3.73;;;0.60;;
72060;SDS011;59925;52.136;5.420;2022-07-09T12:17:33;2.78;;;0.77;;
72060;SDS011;59925;52.136;5.420;2022-07-09T12:20:00;2.05;;;0.77;;
72060;SDS011;59925;52.136;5.420;2022-07-09T12:22:26;2.33;;;0.60;;
72060;SDS011;59925;52.136;5.420;2022-07-09T12:24:53;1.67;;;0.70;;
72060;SDS011;59925;52.136;5.420;2022-07-09T12:27:19;1.73;;;0.60;;
72060;SDS011;59925;52.136;5.420;2022-07-09T12:29:49;2.75;;;0.70;;
72060;SDS011;59925;52.136;5.420;2022-07-09T12:32:15;3.40;;;0.80;;
72060;SDS011;59925;52.136;5.420;2022-07-09T12:34:41;1.13;;;0.60;;
72060;SDS011;59925;52.136;5.420;2022-07-09T12:37:08;1.83;;;0.85;;
72060;SDS011;59925;52.136;5.420;2022-07-09T12:39:34;2.57;;;0.80;;
72060;SDS011;59925;52.136;5.420;2022-07-09T12:42:01;2.45;;;0.85;;
72060;SDS011;59925;52.136;5.420;2022-07-09T12:44:27;4.57;;;1.00;;
72060;SDS011;59925;52.136;5.420;2022-07-09T12:46:54;2.45;;;0.60;;
72060;SDS011;59925;52.136;5.420;2022-07-09T12:49:20;2.15;;;0.80;;
72060;SDS011;59925;52.136;5.420;2022-07-09T12:51:47;1.33;;;0.60;;
72060;SDS011;59925;52.136;5.420;2022-07-09T12:54:13;1.70;;;0.60;;
72060;SDS011;59925;52.136;5.420;2022-07-09T12:56:40;2.63;;;0.70;;
72060;SDS011;59925;52.136;5.420;2022-07-09T12:59:26;2.22;;;0.77;;
72060;SDS011;59925;52.136;5.420;2022-07-09T13:01:53;1.65;;;0.60;;
72060;SDS011;59925;52.136;5.420;2022-07-09T13:04:19;1.53;;;0.70;;
72060;SDS011;59925;52.136;5.420;2022-07-09T13:06:46;4.68;;;0.70;;
72060;SDS011;59925;52.136;5.420;2022-07-09T13:09:12;3.80;;;0.90;;
72060;SDS011;59925;52.136;5.420;2022-07-09T13:11:39;2.00;;;0.70;;
72060;SDS011;59925;52.136;5.420;2022-07-09T13:14:06;2.55;;;0.70;;
72060;SDS011;59925;52.136;5.420;2022-07-09T13:16:36;2.67;;;0.80;;
72060;SDS011;59925;52.136;5.420;2022-07-09T13:19:03;2.08;;;0.80;;
72060;SDS011;59925;52.136;5.420;2022-07-09T13:21:30;5.28;;;0.90;;
72060;SDS011;59925;52.136;5.420;2022-07-09T13:23:57;3.53;;;0.90;;
72060;SDS011;59925;52.136;5.420;2022-07-09T13:26:24;1.80;;;0.80;;
72060;SDS011;59925;52.136;5.420;2022-07-09T13:28:51;2.33;;;0.77;;
72060;SDS011;59925;52.136;5.420;2022-07-09T13:31:17;2.45;;;0.85;;
72060;SDS011;59925;52.136;5.420;2022-07-09T13:33:47;1.63;;;0.70;;
72060;SDS011;59925;52.136;5.420;2022-07-09T13:36:14;2.55;;;1.02;;
72060;SDS011;59925;52.136;5.420;2022-07-09T13:38:40;3.90;;;1.20;;
72060;SDS011;59925;52.136;5.420;2022-07-09T13:41:06;2.80;;;1.20;;
72060;SDS011;59925;52.136;5.420;2022-07-09T13:43:33;3.45;;;0.98;;
72060;SDS011;59925;52.136;5.420;2022-07-09T13:46:02;2.97;;;0.98;;
72060;SDS011;59925;52.136;5.420;2022-07-09T13:48:28;7.63;;;1.27;;
72060;SDS011;59925;52.136;5.420;2022-07-09T13:50:55;5.50;;;1.30;;
72060;SDS011;59925;52.136;5.420;2022-07-09T13:53:21;9.67;;;1.03;;
72060;SDS011;59925;52.136;5.420;2022-07-09T13:55:48;4.38;;;0.98;;
72060;SDS011;59925;52.136;5.420;2022-07-09T13:58:15;5.75;;;1.33;;
72060;SDS011;59925;52.136;5.420;2022-07-09T14:00:42;5.63;;;0.98;;
72060;SDS011;59925;52.136;5.420;2022-07-09T14:03:08;5.85;;;1.10;;
72060;SDS011;59925;52.136;5.420;2022-07-09T14:05:35;4.37;;;1.23;;
72060;SDS011;59925;52.136;5.420;2022-07-09T14:08:04;3.53;;;1.05;;
72060;SDS011;59925;52.136;5.420;2022-07-09T14:10:32;4.88;;;1.10;;
72060;SDS011;59925;52.136;5.420;2022-07-09T14:13:00;2.13;;;0.82;;
72060;SDS011;59925;52.136;5.420;2022-07-09T14:15:26;4.88;;;1.20;;
72060;SDS011;59925;52.136;5.420;2022-07-09T14:17:53;3.97;;;1.20;;
72060;SDS011;59925;52.136;5.420;2022-07-09T14:20:20;7.30;;;1.00;;
72060;SDS011;59925;52.136;5.420;2022-07-09T14:22:47;2.83;;;0.80;;
72060;SDS011;59925;52.136;5.420;2022-07-09T14:25:13;5.40;;;0.95;;
72060;SDS011;59925;52.136;5.420;2022-07-09T14:27:40;4.38;;;1.00;;
72060;SDS011;59925;52.136;5.420;2022-07-09T14:30:07;3.87;;;1.00;;
72060;SDS011;59925;52.136;5.420;2022-07-09T14:32:35;1.95;;;0.85;;
72060;SDS011;59925;52.136;5.420;2022-07-09T14:35:02;3.53;;;1.00;;
72060;SDS011;59925;52.136;5.420;2022-07-09T14:37:30;4.03;;;0.98;;
72060;SDS011;59925;52.136;5.420;2022-07-09T14:39:57;11.32;;;1.05;;
72060;SDS011;59925;52.136;5.420;2022-07-09T14:42:23;3.23;;;0.90;;
72060;SDS011;59925;52.136;5.420;2022-07-09T14:44:49;4.50;;;0.85;;
72060;SDS011;59925;52.136;5.420;2022-07-09T14:47:17;3.22;;;0.90;;
72060;SDS011;59925;52.136;5.420;2022-07-09T14:49:46;3.90;;;1.00;;
72060;SDS011;59925;52.136;5.420;2022-07-09T14:52:13;2.78;;;0.90;;
72060;SDS011;59925;52.136;5.420;2022-07-09T14:54:40;3.43;;;0.90;;
72060;SDS011;59925;52.136;5.420;2022-07-09T14:57:07;7.07;;;0.90;;